Time;durP1;ratioP1;P1;durP2;ratioP2;P2;SDS_P1;SDS_P2;PMS_P1;PMS_P2;Temp;Humidity;BMP_temperature;BMP_pressure;BME280_temperature;BME280_humidity;BME280_pressure;Samples;Min_cycle;Max_cycle;Signal;HPM_P1;HPM_P2
2022/07/29 00:00:08;;;;;;;5.63;1.27;;;;;;;;;;5080610;28;20079;-74
2022/07/29 00:02:34;;;;;;;4.63;1.08;;;;;;;;;;5073100;28;20107;-74
2022/07/29 00:05:00;;;;;;;4.80;1.23;;;;;;;;;;5076204;28;20025;-74
2022/07/29 00:07:26;;;;;;;2.75;1.23;;;;;;;;;;5075989;28;20119;-74
2022/07/29 00:09:52;;;;;;;2.90;1.30;;;;;;;;;;5073822;28;20032;-74
2022/07/29 00:12:21;;;;;;;4.68;1.20;;;;;;;;;;5080188;28;20032;-74
2022/07/29 00:14:47;;;;;;;2.90;1.10;;;;;;;;;;5074875;28;20032;-74
2022/07/29 00:17:13;;;;;;;3.05;1.10;;;;;;;;;;5079054;28;20039;-74
2022/07/29 00:19:39;;;;;;;3.08;0.98;;;;;;;;;;5081109;28;20033;-74
2022/07/29 00:22:05;;;;;;;5.03;1.20;;;;;;;;;;5071950;28;20024;-74
2022/07/29 00:24:31;;;;;;;4.85;1.33;;;;;;;;;;5074902;28;20661;-74
2022/07/29 00:26:57;;;;;;;5.07;1.58;;;;;;;;;;5077596;28;20035;-74
2022/07/29 00:29:24;;;;;;;4.05;1.85;;;;;;;;;;5076370;28;20037;-74
2022/07/29 00:31:50;;;;;;;5.05;1.60;;;;;;;;;;5075484;28;20111;-74
2022/07/29 00:37:01;;;;;;;5.22;1.77;;;;;;;;;;5076799;28;20050;-73
2022/07/29 00:39:27;;;;;;;6.20;1.48;;;;;;;;;;5075245;28;20056;-74
2022/07/29 00:41:53;;;;;;;5.30;1.33;;;;;;;;;;5074934;28;20401;-74
2022/07/29 00:44:19;;;;;;;4.03;1.40;;;;;;;;;;5070014;28;20051;-74
2022/07/29 00:46:45;;;;;;;4.57;1.40;;;;;;;;;;5078097;28;20020;-74
2022/07/29 00:49:11;;;;;;;5.40;1.25;;;;;;;;;;5084013;28;20031;-74
2022/07/29 00:51:38;;;;;;;5.88;1.60;;;;;;;;;;5075787;28;20118;-74
2022/07/29 00:54:04;;;;;;;5.78;1.40;;;;;;;;;;5077730;28;20111;-73
2022/07/29 00:56:31;;;;;;;5.53;1.42;;;;;;;;;;5074399;28;20036;-73
2022/07/29 00:58:57;;;;;;;5.65;1.15;;;;;;;;;;5074945;28;20064;-73
2022/07/29 01:01:24;;;;;;;5.72;1.25;;;;;;;;;;5071921;28;20040;-73
2022/07/29 01:03:50;;;;;;;4.18;1.75;;;;;;;;;;5077944;28;20028;-74
2022/07/29 01:06:17;;;;;;;3.97;1.15;;;;;;;;;;5080393;28;20082;-74
2022/07/29 01:08:43;;;;;;;2.92;1.08;;;;;;;;;;5073580;28;20083;-74
2022/07/29 01:11:10;;;;;;;2.95;1.00;;;;;;;;;;5071363;28;20032;-74
2022/07/29 01:13:36;;;;;;;4.10;1.30;;;;;;;;;;5085655;28;20043;-74
2022/07/29 01:16:13;;;;;;;2.90;1.10;;;;;;;;;;5073089;28;20033;-74
2022/07/29 01:18:42;;;;;;;3.70;1.10;;;;;;;;;;5078979;28;20036;-74
2022/07/29 01:21:17;;;;;;;4.07;1.20;;;;;;;;;;5070060;28;20029;-73
2022/07/29 01:23:43;;;;;;;3.42;1.45;;;;;;;;;;5075583;28;20036;-73
2022/07/29 01:26:28;;;;;;;3.20;0.88;;;;;;;;;;5068901;28;20028;-73
2022/07/29 01:29:10;;;;;;;3.10;1.10;;;;;;;;;;5069819;28;20039;-74
2022/07/29 01:31:45;;;;;;;4.10;1.27;;;;;;;;;;5074224;28;20037;-74
2022/07/29 01:34:13;;;;;;;6.72;1.40;;;;;;;;;;5077458;28;20040;-74
2022/07/29 01:36:47;;;;;;;4.32;1.38;;;;;;;;;;5074436;28;20102;-74
2022/07/29 01:39:24;;;;;;;3.35;1.15;;;;;;;;;;5073213;28;20051;-73
2022/07/29 01:41:56;;;;;;;3.13;1.20;;;;;;;;;;5076530;28;20024;-74
2022/07/29 01:44:43;;;;;;;2.83;1.33;;;;;;;;;;5079279;28;20445;-74
2022/07/29 01:47:14;;;;;;;5.43;1.48;;;;;;;;;;5069268;28;20115;-74
2022/07/29 01:49:43;;;;;;;2.80;1.13;;;;;;;;;;5067486;28;20035;-74
2022/07/29 01:52:11;;;;;;;2.90;1.20;;;;;;;;;;5073912;28;20089;-74
2022/07/29 01:54:43;;;;;;;4.97;1.23;;;;;;;;;;5077861;28;20032;-74
2022/07/29 01:57:10;;;;;;;2.70;0.90;;;;;;;;;;5069607;28;20123;-74
2022/07/29 01:59:37;;;;;;;2.30;0.95;;;;;;;;;;5073591;28;20040;-74
2022/07/29 02:02:05;;;;;;;3.58;1.48;;;;;;;;;;5070589;28;20029;-74
2022/07/29 02:04:34;;;;;;;3.22;1.27;;;;;;;;;;5072056;28;20075;-74
2022/07/29 02:07:02;;;;;;;7.80;3.17;;;;;;;;;;5068983;28;20036;-73
2022/07/29 02:09:29;;;;;;;8.85;2.70;;;;;;;;;;5072428;28;20048;-73
2022/07/29 02:11:56;;;;;;;7.57;3.13;;;;;;;;;;5070950;28;20040;-74
2022/07/29 02:14:23;;;;;;;7.57;2.85;;;;;;;;;;5080410;28;20028;-74
2022/07/29 02:16:53;;;;;;;4.90;2.00;;;;;;;;;;5074020;28;20759;-73
2022/07/29 02:19:20;;;;;;;8.70;2.90;;;;;;;;;;5073850;28;20035;-73
2022/07/29 02:21:47;;;;;;;4.32;2.08;;;;;;;;;;5068872;28;20465;-74
2022/07/29 02:24:13;;;;;;;7.10;2.72;;;;;;;;;;5077518;28;20032;-74
2022/07/29 02:26:40;;;;;;;4.22;1.80;;;;;;;;;;5077110;28;20039;-74
2022/07/29 02:29:07;;;;;;;4.88;2.05;;;;;;;;;;5079799;28;20039;-74
2022/07/29 02:31:34;;;;;;;6.53;1.80;;;;;;;;;;5074317;28;20068;-74
2022/07/29 02:34:02;;;;;;;9.65;2.25;;;;;;;;;;5077435;28;20032;-73
2022/07/29 02:36:29;;;;;;;5.88;2.10;;;;;;;;;;5083738;28;20071;-74
2022/07/29 02:38:57;;;;;;;5.03;2.30;;;;;;;;;;5067470;28;20546;-73
2022/07/29 02:41:26;;;;;;;7.05;2.58;;;;;;;;;;5070918;28;20028;-74
2022/07/29 02:43:55;;;;;;;9.23;2.65;;;;;;;;;;5068526;28;20078;-73
2022/07/29 02:46:26;;;;;;;6.22;2.30;;;;;;;;;;5075987;28;20036;-74
2022/07/29 02:48:55;;;;;;;7.03;2.55;;;;;;;;;;5066283;28;20036;-74
2022/07/29 02:51:48;;;;;;;10.60;2.53;;;;;;;;;;5072456;28;20120;-74
2022/07/29 02:54:23;;;;;;;5.45;1.80;;;;;;;;;;5072698;28;20044;-74
2022/07/29 02:56:52;;;;;;;5.57;2.30;;;;;;;;;;5071873;28;20032;-74
2022/07/29 02:59:21;;;;;;;3.97;1.48;;;;;;;;;;5072778;28;20466;-74
2022/07/29 03:01:47;;;;;;;5.35;1.30;;;;;;;;;;5082039;28;20036;-73
2022/07/29 03:04:14;;;;;;;4.70;1.55;;;;;;;;;;5078026;28;20466;-73
2022/07/29 03:06:41;;;;;;;3.13;1.10;;;;;;;;;;5082093;28;20036;-73
2022/07/29 03:09:08;;;;;;;4.15;1.10;;;;;;;;;;5074257;28;20028;-74
2022/07/29 03:11:35;;;;;;;4.20;1.40;;;;;;;;;;5075587;28;20032;-74
2022/07/29 03:14:01;;;;;;;6.68;1.55;;;;;;;;;;5084216;28;20037;-74
2022/07/29 03:16:28;;;;;;;4.68;1.48;;;;;;;;;;5081663;28;20024;-74
2022/07/29 03:18:55;;;;;;;4.25;1.83;;;;;;;;;;5085287;28;20068;-74
2022/07/29 03:21:21;;;;;;;5.25;1.65;;;;;;;;;;5074124;28;20526;-74
2022/07/29 03:23:47;;;;;;;8.77;1.77;;;;;;;;;;5080321;28;20029;-74
2022/07/29 03:26:13;;;;;;;4.93;2.00;;;;;;;;;;5081834;28;20107;-73
2022/07/29 03:28:39;;;;;;;5.45;2.10;;;;;;;;;;5079413;28;20032;-73
2022/07/29 03:31:05;;;;;;;5.47;1.98;;;;;;;;;;5078336;28;20036;-74
2022/07/29 03:33:31;;;;;;;4.38;1.73;;;;;;;;;;5081592;28;20078;-73
2022/07/29 03:35:58;;;;;;;6.25;2.13;;;;;;;;;;5073386;28;20532;-73
2022/07/29 03:38:25;;;;;;;6.55;1.90;;;;;;;;;;5074752;28;20595;-73
2022/07/29 03:40:56;;;;;;;10.30;2.63;;;;;;;;;;5072240;28;20039;-74
2022/07/29 03:43:23;;;;;;;6.45;2.45;;;;;;;;;;5071893;28;20102;-74
2022/07/29 03:45:50;;;;;;;7.28;1.80;;;;;;;;;;5074797;28;20029;-74
2022/07/29 03:48:18;;;;;;;6.63;2.38;;;;;;;;;;5079236;28;20063;-74
2022/07/29 03:50:45;;;;;;;7.53;2.42;;;;;;;;;;5073909;28;20032;-74
2022/07/29 03:53:11;;;;;;;7.15;2.25;;;;;;;;;;5082253;28;20460;-74
2022/07/29 03:55:40;;;;;;;10.40;3.30;;;;;;;;;;5076771;28;20031;-74
2022/07/29 03:58:07;;;;;;;9.60;3.10;;;;;;;;;;5075908;28;20175;-74
2022/07/29 04:00:34;;;;;;;10.10;3.17;;;;;;;;;;5077325;28;20063;-74
2022/07/29 04:03:00;;;;;;;10.68;3.70;;;;;;;;;;5081375;28;20062;-74
2022/07/29 04:05:26;;;;;;;13.32;4.45;;;;;;;;;;5081889;28;20029;-73
2022/07/29 04:07:52;;;;;;;12.05;5.65;;;;;;;;;;5079825;28;20081;-73
2022/07/29 04:10:22;;;;;;;14.88;5.32;;;;;;;;;;5084708;28;20036;-74
2022/07/29 04:12:49;;;;;;;17.65;5.18;;;;;;;;;;5076539;28;20122;-74
2022/07/29 04:15:15;;;;;;;20.17;6.57;;;;;;;;;;5080455;28;20372;-74
2022/07/29 04:17:41;;;;;;;14.52;4.63;;;;;;;;;;5076800;28;20032;-74
2022/07/29 04:20:07;;;;;;;13.90;6.10;;;;;;;;;;5076734;28;20046;-74
2022/07/29 04:22:33;;;;;;;16.30;5.85;;;;;;;;;;5079630;28;20052;-74
2022/07/29 04:24:59;;;;;;;13.15;5.15;;;;;;;;;;5074968;28;20032;-74
2022/07/29 04:27:25;;;;;;;13.15;3.88;;;;;;;;;;5075007;28;20031;-74
2022/07/29 04:29:51;;;;;;;9.80;3.20;;;;;;;;;;5076039;28;20036;-73
2022/07/29 04:32:17;;;;;;;8.07;3.08;;;;;;;;;;5075815;28;20862;-73
2022/07/29 04:34:45;;;;;;;8.48;2.63;;;;;;;;;;5072444;28;20884;-74
2022/07/29 04:37:11;;;;;;;10.63;3.05;;;;;;;;;;5078353;28;20039;-74
2022/07/29 04:39:37;;;;;;;9.20;3.10;;;;;;;;;;5075184;28;20047;-74
2022/07/29 04:42:03;;;;;;;10.05;2.72;;;;;;;;;;5075963;28;20500;-74
2022/07/29 04:44:29;;;;;;;9.07;2.90;;;;;;;;;;5074978;28;20037;-74
2022/07/29 04:46:55;;;;;;;7.95;2.88;;;;;;;;;;5080926;28;20028;-74
2022/07/29 04:49:21;;;;;;;12.48;3.60;;;;;;;;;;5071072;28;20037;-74
2022/07/29 04:51:47;;;;;;;7.20;2.60;;;;;;;;;;5077839;28;20052;-74
2022/07/29 04:54:13;;;;;;;8.98;3.00;;;;;;;;;;5070417;28;20385;-73
2022/07/29 04:56:39;;;;;;;10.48;3.50;;;;;;;;;;5076806;28;20473;-73
2022/07/29 04:59:05;;;;;;;12.35;3.83;;;;;;;;;;5078749;28;20045;-74
2022/07/29 05:01:31;;;;;;;11.25;3.65;;;;;;;;;;5072490;28;20031;-74
2022/07/29 05:03:57;;;;;;;12.80;3.78;;;;;;;;;;5071489;28;20056;-73
2022/07/29 05:06:23;;;;;;;13.10;5.10;;;;;;;;;;5075077;28;20024;-73
2022/07/29 05:08:49;;;;;;;12.02;4.10;;;;;;;;;;5074796;28;20040;-74
2022/07/29 05:11:15;;;;;;;17.00;3.88;;;;;;;;;;5076581;28;20488;-74
2022/07/29 05:13:41;;;;;;;9.57;3.25;;;;;;;;;;5081154;28;20579;-73
2022/07/29 05:16:08;;;;;;;12.80;3.55;;;;;;;;;;5080336;28;20039;-73
2022/07/29 05:18:34;;;;;;;9.23;3.20;;;;;;;;;;5078222;28;20051;-74
2022/07/29 05:21:00;;;;;;;8.25;3.38;;;;;;;;;;5075688;28;20025;-74
2022/07/29 05:23:26;;;;;;;8.25;3.03;;;;;;;;;;5072094;28;20032;-74
2022/07/29 05:25:52;;;;;;;9.75;3.25;;;;;;;;;;5074205;28;20036;-74
2022/07/29 05:28:18;;;;;;;9.77;2.97;;;;;;;;;;5071271;28;20032;-74
2022/07/29 05:30:44;;;;;;;10.07;3.03;;;;;;;;;;5070590;28;20036;-74
2022/07/29 05:33:10;;;;;;;14.35;3.53;;;;;;;;;;5071068;28;20032;-74
2022/07/29 05:35:37;;;;;;;8.57;2.60;;;;;;;;;;5076495;28;20036;-74
2022/07/29 05:38:04;;;;;;;12.48;3.22;;;;;;;;;;5074112;28;20082;-73
2022/07/29 05:40:30;;;;;;;6.10;2.47;;;;;;;;;;5070065;28;20040;-74
2022/07/29 05:42:56;;;;;;;11.73;3.30;;;;;;;;;;5070189;28;20747;-74
2022/07/29 05:45:24;;;;;;;14.27;3.53;;;;;;;;;;5069787;28;20107;-74
2022/07/29 05:47:50;;;;;;;12.20;3.80;;;;;;;;;;5073038;28;20017;-74
2022/07/29 05:50:16;;;;;;;11.43;3.63;;;;;;;;;;5067916;28;20032;-74
2022/07/29 05:52:42;;;;;;;9.73;4.30;;;;;;;;;;5074355;28;20186;-74
2022/07/29 05:55:08;;;;;;;18.15;3.53;;;;;;;;;;5080520;28;20074;-74
2022/07/29 05:57:34;;;;;;;20.70;4.90;;;;;;;;;;5072033;28;20028;-74
2022/07/29 06:00:00;;;;;;;19.92;4.90;;;;;;;;;;5071236;28;20033;-73
2022/07/29 06:02:26;;;;;;;23.48;6.97;;;;;;;;;;5070898;28;20016;-73
2022/07/29 06:04:53;;;;;;;25.25;8.75;;;;;;;;;;5078612;28;20040;-73
2022/07/29 06:07:19;;;;;;;17.67;5.90;;;;;;;;;;5076199;28;20524;-74
2022/07/29 06:09:45;;;;;;;15.35;4.75;;;;;;;;;;5074551;28;20470;-73
2022/07/29 06:12:11;;;;;;;21.75;5.85;;;;;;;;;;5076597;28;20469;-73
2022/07/29 06:14:38;;;;;;;17.58;4.55;;;;;;;;;;5069257;28;20039;-73
2022/07/29 06:17:05;;;;;;;16.08;3.97;;;;;;;;;;5079669;28;20043;-73
2022/07/29 06:19:31;;;;;;;16.63;4.57;;;;;;;;;;5072256;28;20039;-74
2022/07/29 06:21:57;;;;;;;9.85;3.83;;;;;;;;;;5077497;28;20030;-73
2022/07/29 06:24:23;;;;;;;12.40;4.00;;;;;;;;;;5083153;28;20391;-73
2022/07/29 06:26:49;;;;;;;11.15;3.42;;;;;;;;;;5083501;28;20024;-73
2022/07/29 06:29:15;;;;;;;13.23;3.45;;;;;;;;;;5077957;28;20071;-73
2022/07/29 06:31:41;;;;;;;15.57;3.15;;;;;;;;;;5075874;28;20028;-73
2022/07/29 06:34:07;;;;;;;11.77;2.90;;;;;;;;;;5071513;28;20036;-73
2022/07/29 06:36:38;;;;;;;7.13;2.75;;;;;;;;;;5080689;28;20028;-73
2022/07/29 06:39:05;;;;;;;10.85;2.97;;;;;;;;;;5079973;28;20056;-73
2022/07/29 06:41:31;;;;;;;5.30;1.80;;;;;;;;;;5079193;28;20024;-73
2022/07/29 06:43:57;;;;;;;7.20;1.40;;;;;;;;;;5077273;28;20032;-73
2022/07/29 06:46:23;;;;;;;3.00;1.45;;;;;;;;;;5086089;28;20524;-74
2022/07/29 06:48:49;;;;;;;10.82;1.50;;;;;;;;;;5077519;28;20040;-74
2022/07/29 06:51:16;;;;;;;13.55;2.55;;;;;;;;;;5084656;28;20038;-74
2022/07/29 06:53:42;;;;;;;6.68;2.25;;;;;;;;;;5073122;28;20039;-74
2022/07/29 06:56:08;;;;;;;5.97;1.50;;;;;;;;;;5076652;28;20028;-73
2022/07/29 06:58:35;;;;;;;5.47;1.90;;;;;;;;;;5075706;28;20864;-73
2022/07/29 07:01:02;;;;;;;5.63;1.67;;;;;;;;;;5077791;28;20358;-73
2022/07/29 07:03:28;;;;;;;9.23;2.50;;;;;;;;;;5072915;28;20466;-73
2022/07/29 07:05:55;;;;;;;7.15;1.77;;;;;;;;;;5070440;28;20115;-73
2022/07/29 07:08:21;;;;;;;6.28;2.25;;;;;;;;;;5070213;28;20103;-73
2022/07/29 07:10:48;;;;;;;7.78;1.90;;;;;;;;;;5075196;28;20028;-73
2022/07/29 07:13:14;;;;;;;6.65;2.33;;;;;;;;;;5091720;28;20047;-73
2022/07/29 07:15:40;;;;;;;5.13;2.15;;;;;;;;;;5070681;28;20074;-74
2022/07/29 07:18:07;;;;;;;9.57;2.70;;;;;;;;;;5075722;28;20016;-73
2022/07/29 07:20:36;;;;;;;7.35;2.00;;;;;;;;;;5073129;28;20043;-73
2022/07/29 07:23:02;;;;;;;7.55;2.33;;;;;;;;;;5072960;28;20031;-73
2022/07/29 07:25:28;;;;;;;7.43;2.00;;;;;;;;;;5075180;28;20033;-73
2022/07/29 07:27:54;;;;;;;8.30;1.70;;;;;;;;;;5076571;28;20035;-73
2022/07/29 07:30:21;;;;;;;5.97;1.70;;;;;;;;;;5077107;28;20122;-74
2022/07/29 07:32:47;;;;;;;7.80;2.50;;;;;;;;;;5080452;28;20523;-74
2022/07/29 07:35:13;;;;;;;9.07;2.00;;;;;;;;;;5074691;28;20032;-73
2022/07/29 07:37:43;;;;;;;5.20;1.65;;;;;;;;;;5083563;28;20061;-73
2022/07/29 07:40:09;;;;;;;7.75;2.00;;;;;;;;;;5069623;28;20048;-74
2022/07/29 07:42:35;;;;;;;10.68;2.70;;;;;;;;;;5076559;28;20024;-74
2022/07/29 07:45:01;;;;;;;9.23;3.00;;;;;;;;;;5079803;28;20119;-74
2022/07/29 07:47:27;;;;;;;14.35;3.05;;;;;;;;;;5077277;28;20210;-73
2022/07/29 07:49:53;;;;;;;7.20;2.20;;;;;;;;;;5079680;28;20612;-73
2022/07/29 07:52:20;;;;;;;12.32;2.70;;;;;;;;;;5085956;28;20110;-73
2022/07/29 07:54:47;;;;;;;18.55;3.33;;;;;;;;;;5076172;28;20469;-73
2022/07/29 07:57:13;;;;;;;10.10;2.75;;;;;;;;;;5077416;28;20036;-74
2022/07/29 07:59:40;;;;;;;11.00;3.10;;;;;;;;;;5082017;28;20131;-74
2022/07/29 08:02:06;;;;;;;19.50;4.43;;;;;;;;;;5081631;28;20370;-73
2022/07/29 08:04:32;;;;;;;12.82;3.35;;;;;;;;;;5078080;28;20094;-73
2022/07/29 08:06:59;;;;;;;12.85;3.33;;;;;;;;;;5074936;28;20032;-74
2022/07/29 08:09:25;;;;;;;13.13;3.67;;;;;;;;;;5078123;28;20147;-74
2022/07/29 08:11:52;;;;;;;4.07;1.98;;;;;;;;;;5076715;28;20038;-74
2022/07/29 08:14:18;;;;;;;5.72;1.77;;;;;;;;;;5074573;28;20376;-74
2022/07/29 08:16:44;;;;;;;12.93;1.90;;;;;;;;;;5071271;28;20100;-74
2022/07/29 08:19:10;;;;;;;5.28;1.58;;;;;;;;;;5078556;28;20044;-75
2022/07/29 08:21:37;;;;;;;5.78;1.70;;;;;;;;;;5074851;28;20028;-74
2022/07/29 08:26:48;;;;;;;9.50;2.55;;;;;;;;;;5075518;28;20058;-73
2022/07/29 08:29:14;;;;;;;6.88;1.80;;;;;;;;;;5082254;28;20047;-73
2022/07/29 08:31:40;;;;;;;6.60;2.15;;;;;;;;;;5073156;28;20257;-73
2022/07/29 08:34:06;;;;;;;4.28;1.85;;;;;;;;;;5081411;28;20036;-73
2022/07/29 08:36:33;;;;;;;9.70;1.45;;;;;;;;;;5078723;28;20043;-73
2022/07/29 08:38:59;;;;;;;7.65;1.75;;;;;;;;;;5084746;28;20044;-73
2022/07/29 08:41:26;;;;;;;4.45;1.70;;;;;;;;;;5074794;28;20090;-73
2022/07/29 08:43:52;;;;;;;5.10;1.70;;;;;;;;;;5078248;28;20494;-73
2022/07/29 08:46:18;;;;;;;12.48;1.60;;;;;;;;;;5080564;28;20074;-73
2022/07/29 08:48:44;;;;;;;7.90;2.17;;;;;;;;;;5080786;28;20578;-73
2022/07/29 08:51:14;;;;;;;10.60;1.77;;;;;;;;;;5084520;28;20416;-73
2022/07/29 08:53:41;;;;;;;4.70;1.40;;;;;;;;;;5077723;28;20106;-73
2022/07/29 08:56:07;;;;;;;5.90;2.15;;;;;;;;;;5077503;28;20028;-73
2022/07/29 08:58:34;;;;;;;4.60;1.40;;;;;;;;;;5070177;28;20121;-73
2022/07/29 09:01:02;;;;;;;4.50;1.45;;;;;;;;;;5078734;28;20024;-74
2022/07/29 09:03:32;;;;;;;9.77;2.00;;;;;;;;;;5076966;28;20458;-74
2022/07/29 09:06:01;;;;;;;9.00;2.00;;;;;;;;;;5078511;28;20073;-74
2022/07/29 09:08:28;;;;;;;8.55;1.60;;;;;;;;;;5076243;28;20040;-74
2022/07/29 09:10:59;;;;;;;7.38;2.10;;;;;;;;;;5076686;28;20024;-74
2022/07/29 09:13:26;;;;;;;5.38;2.75;;;;;;;;;;5075612;28;20039;-74
2022/07/29 09:15:52;;;;;;;7.68;2.05;;;;;;;;;;5074230;28;20012;-74
2022/07/29 09:18:34;;;;;;;9.05;3.17;;;;;;;;;;5079146;28;20081;-74
2022/07/29 09:24:04;;;;;;;4.43;1.77;;;;;;;;;;5070038;28;20059;-75
2022/07/29 09:26:31;;;;;;;3.05;1.58;;;;;;;;;;5077716;28;20055;-74
2022/07/29 09:28:58;;;;;;;2.92;1.40;;;;;;;;;;5083097;28;20028;-74
2022/07/29 09:31:44;;;;;;;4.07;2.15;;;;;;;;;;5077266;28;20040;-74
2022/07/29 09:34:10;;;;;;;6.30;1.60;;;;;;;;;;5078498;28;20382;-74
2022/07/29 09:36:40;;;;;;;4.75;1.67;;;;;;;;;;5084982;28;20035;-74
2022/07/29 09:39:07;;;;;;;3.70;1.38;;;;;;;;;;5073038;28;20059;-74
2022/07/29 09:41:49;;;;;;;4.00;1.83;;;;;;;;;;5081750;28;20459;-74
2022/07/29 09:44:16;;;;;;;5.65;1.80;;;;;;;;;;5076690;28;20441;-74
2022/07/29 09:46:53;;;;;;;5.15;1.40;;;;;;;;;;5075778;28;20052;-74
2022/07/29 09:49:19;;;;;;;4.47;1.55;;;;;;;;;;5075946;28;20036;-74
2022/07/29 09:51:45;;;;;;;7.03;1.40;;;;;;;;;;5071947;28;20457;-74
2022/07/29 09:54:23;;;;;;;3.85;1.35;;;;;;;;;;5071389;28;20036;-74
2022/07/29 09:56:49;;;;;;;9.38;1.50;;;;;;;;;;5073680;28;20033;-74
2022/07/29 09:59:16;;;;;;;6.15;1.60;;;;;;;;;;5083717;28;20036;-74
2022/07/29 10:01:42;;;;;;;3.65;1.15;;;;;;;;;;5078863;28;20028;-73
2022/07/29 10:04:08;;;;;;;5.03;1.70;;;;;;;;;;5084624;28;20028;-73
2022/07/29 10:06:34;;;;;;;8.23;1.83;;;;;;;;;;5069613;28;20040;-74
2022/07/29 10:09:10;;;;;;;5.60;1.35;;;;;;;;;;5072295;28;20032;-74
2022/07/29 10:11:36;;;;;;;4.10;1.52;;;;;;;;;;5080162;28;20033;-74
2022/07/29 10:14:03;;;;;;;4.85;1.50;;;;;;;;;;5082124;28;20035;-73
2022/07/29 10:16:32;;;;;;;3.53;1.20;;;;;;;;;;5075553;28;20028;-73
2022/07/29 10:18:59;;;;;;;3.20;0.98;;;;;;;;;;5072974;28;20469;-74
2022/07/29 10:21:28;;;;;;;3.75;1.42;;;;;;;;;;5078049;28;20034;-74
2022/07/29 10:23:55;;;;;;;4.65;1.60;;;;;;;;;;5080918;28;20084;-74
2022/07/29 10:26:21;;;;;;;6.22;1.77;;;;;;;;;;5075433;28;20028;-74
2022/07/29 10:28:47;;;;;;;4.47;1.40;;;;;;;;;;5076998;28;20111;-74
2022/07/29 10:31:24;;;;;;;4.97;1.33;;;;;;;;;;5080382;28;20032;-74
2022/07/29 10:34:14;;;;;;;3.85;1.23;;;;;;;;;;5071313;28;20033;-74
2022/07/29 10:37:00;;;;;;;2.50;1.15;;;;;;;;;;5084575;28;20068;-73
2022/07/29 10:39:38;;;;;;;3.80;1.23;;;;;;;;;;5078408;28;20072;-74
2022/07/29 10:42:07;;;;;;;4.90;1.23;;;;;;;;;;5081629;28;20028;-74
2022/07/29 10:44:33;;;;;;;6.20;1.50;;;;;;;;;;5072715;28;20032;-74
2022/07/29 10:47:00;;;;;;;4.35;1.23;;;;;;;;;;5080380;28;20478;-74
2022/07/29 10:49:27;;;;;;;6.07;1.60;;;;;;;;;;5073738;28;20516;-73
2022/07/29 10:51:59;;;;;;;6.57;1.58;;;;;;;;;;5079558;28;20070;-74
2022/07/29 10:57:17;;;;;;;7.88;1.40;;;;;;;;;;5082185;28;20039;-73
2022/07/29 10:59:47;;;;;;;15.60;2.83;;;;;;;;;;5075140;28;20761;-74
2022/07/29 11:02:32;;;;;;;10.32;2.03;;;;;;;;;;5076397;28;20202;-74
2022/07/29 11:04:58;;;;;;;14.20;2.60;;;;;;;;;;5071767;28;20063;-74
2022/07/29 11:07:24;;;;;;;12.68;2.30;;;;;;;;;;5079299;28;20019;-74
2022/07/29 11:10:09;;;;;;;6.13;1.60;;;;;;;;;;5080059;28;20113;-74
2022/07/29 11:12:38;;;;;;;17.95;2.53;;;;;;;;;;5073848;28;20031;-74
2022/07/29 11:15:05;;;;;;;13.48;2.40;;;;;;;;;;5080456;28;20051;-74
2022/07/29 11:17:51;;;;;;;11.68;2.50;;;;;;;;;;5079019;28;20069;-74
2022/07/29 11:20:38;;;;;;;6.65;2.67;;;;;;;;;;5068413;28;20036;-73
2022/07/29 11:23:19;;;;;;;11.45;3.45;;;;;;;;;;5077469;28;20024;-73
2022/07/29 11:25:46;;;;;;;7.75;2.38;;;;;;;;;;5081114;28;20035;-73
2022/07/29 11:28:17;;;;;;;4.43;1.90;;;;;;;;;;5074867;28;20036;-74
2022/07/29 11:30:50;;;;;;;8.65;2.00;;;;;;;;;;5078823;28;20521;-74
2022/07/29 11:33:32;;;;;;;5.68;1.92;;;;;;;;;;5082013;28;20079;-74
2022/07/29 11:36:09;;;;;;;6.70;2.22;;;;;;;;;;5073609;28;20039;-74
2022/07/29 11:38:35;;;;;;;7.75;2.30;;;;;;;;;;5078398;28;20048;-74
2022/07/29 11:41:16;;;;;;;6.45;2.40;;;;;;;;;;5082701;28;20029;-74
2022/07/29 11:43:48;;;;;;;10.20;4.10;;;;;;;;;;5077480;28;20032;-74
2022/07/29 11:46:14;;;;;;;7.63;4.80;;;;;;;;;;5073733;28;20039;-74
2022/07/29 11:48:44;;;;;;;11.60;3.50;;;;;;;;;;5079845;28;20088;-74
2022/07/29 11:51:14;;;;;;;10.35;3.60;;;;;;;;;;5073237;28;20107;-74
2022/07/29 11:53:40;;;;;;;5.35;2.63;;;;;;;;;;5078895;28;20032;-74
2022/07/29 11:56:09;;;;;;;8.27;3.97;;;;;;;;;;5077363;28;20032;-74
2022/07/29 11:58:35;;;;;;;5.30;2.60;;;;;;;;;;5082350;28;20032;-74
2022/07/29 12:01:01;;;;;;;6.60;3.33;;;;;;;;;;5086577;28;20040;-74
2022/07/29 12:03:29;;;;;;;8.50;4.22;;;;;;;;;;5077683;28;20041;-74
2022/07/29 12:05:55;;;;;;;6.75;2.83;;;;;;;;;;5085680;28;20481;-74
2022/07/29 12:08:22;;;;;;;7.20;3.78;;;;;;;;;;5074694;28;20024;-74
2022/07/29 12:10:50;;;;;;;7.82;3.00;;;;;;;;;;5077093;28;20024;-74
2022/07/29 12:13:18;;;;;;;7.82;3.13;;;;;;;;;;5085199;28;20036;-74
2022/07/29 12:15:58;;;;;;;5.47;2.60;;;;;;;;;;5079377;28;20091;-74
2022/07/29 12:18:24;;;;;;;5.80;2.47;;;;;;;;;;5071020;28;20311;-74
2022/07/29 12:20:57;;;;;;;6.68;3.15;;;;;;;;;;5083891;28;20039;-74
2022/07/29 12:23:23;;;;;;;8.48;2.92;;;;;;;;;;5081007;28;20510;-74
2022/07/29 12:25:49;;;;;;;5.50;2.28;;;;;;;;;;5073595;28;20033;-74
2022/07/29 12:28:18;;;;;;;5.75;2.15;;;;;;;;;;5081520;28;20663;-74
2022/07/29 12:30:48;;;;;;;4.70;2.38;;;;;;;;;;5078646;28;20038;-74
2022/07/29 12:33:19;;;;;;;6.72;2.35;;;;;;;;;;5083526;28;20036;-75
2022/07/29 12:35:46;;;;;;;5.95;3.00;;;;;;;;;;5076761;28;20040;-74
2022/07/29 12:38:12;;;;;;;8.50;2.85;;;;;;;;;;5077338;28;20074;-74
2022/07/29 12:40:38;;;;;;;6.28;2.80;;;;;;;;;;5078929;28;20534;-74
2022/07/29 12:43:23;;;;;;;6.55;2.65;;;;;;;;;;5080400;28;20029;-74
2022/07/29 12:45:50;;;;;;;4.88;2.25;;;;;;;;;;5078768;28;20468;-74
2022/07/29 12:48:17;;;;;;;8.38;1.95;;;;;;;;;;5079346;28;20038;-74
2022/07/29 12:50:57;;;;;;;4.82;2.05;;;;;;;;;;5083979;28;20020;-74
2022/07/29 12:53:23;;;;;;;4.70;1.80;;;;;;;;;;5082550;28;20032;-74
2022/07/29 12:55:54;;;;;;;4.55;1.50;;;;;;;;;;5081986;28;20028;-74
2022/07/29 12:58:29;;;;;;;4.70;1.60;;;;;;;;;;5078017;28;20546;-74
2022/07/29 13:01:01;;;;;;;3.78;1.70;;;;;;;;;;5080718;28;20030;-74
2022/07/29 13:03:27;;;;;;;4.20;1.73;;;;;;;;;;5081050;28;20060;-75
2022/07/29 13:05:53;;;;;;;4.40;1.58;;;;;;;;;;5087092;28;20729;-75
2022/07/29 13:08:19;;;;;;;5.28;1.85;;;;;;;;;;5081347;28;20055;-75
2022/07/29 13:10:46;;;;;;;6.18;2.63;;;;;;;;;;5078190;28;20481;-75
2022/07/29 13:13:16;;;;;;;6.38;2.75;;;;;;;;;;5080441;28;20649;-75
2022/07/29 13:15:43;;;;;;;4.75;1.90;;;;;;;;;;5079662;28;20119;-75
2022/07/29 13:18:28;;;;;;;6.00;2.10;;;;;;;;;;5078576;28;20025;-75
2022/07/29 13:20:54;;;;;;;5.82;2.55;;;;;;;;;;5083564;28;20043;-75
2022/07/29 13:23:20;;;;;;;7.07;3.28;;;;;;;;;;5075274;28;20069;-75
2022/07/29 13:25:46;;;;;;;5.68;3.50;;;;;;;;;;5076538;28;20043;-75
2022/07/29 13:28:12;;;;;;;7.82;3.72;;;;;;;;;;5076889;28;20043;-75
2022/07/29 13:30:40;;;;;;;6.80;3.78;;;;;;;;;;5077109;28;20032;-75
2022/07/29 13:33:06;;;;;;;7.10;2.80;;;;;;;;;;5067913;28;20078;-75
2022/07/29 13:35:32;;;;;;;5.30;2.30;;;;;;;;;;5076330;28;20039;-75
2022/07/29 13:37:58;;;;;;;5.68;2.45;;;;;;;;;;5076113;28;20068;-75
2022/07/29 13:40:25;;;;;;;5.15;2.80;;;;;;;;;;5081766;28;20119;-75
2022/07/29 13:42:51;;;;;;;4.50;2.55;;;;;;;;;;5072155;28;20523;-75
2022/07/29 13:45:17;;;;;;;5.75;2.72;;;;;;;;;;5071091;28;20070;-75
2022/07/29 13:47:43;;;;;;;6.22;3.25;;;;;;;;;;5083360;28;20035;-75
2022/07/29 13:50:10;;;;;;;4.18;2.30;;;;;;;;;;5078022;28;20040;-75
2022/07/29 13:52:37;;;;;;;3.75;1.70;;;;;;;;;;5080505;28;20743;-75
2022/07/29 13:55:04;;;;;;;6.45;2.67;;;;;;;;;;5070086;28;20898;-75
2022/07/29 13:57:30;;;;;;;3.58;2.47;;;;;;;;;;5079134;28;20032;-75
2022/07/29 13:59:56;;;;;;;4.30;2.08;;;;;;;;;;5076438;28;20721;-75
2022/07/29 14:02:22;;;;;;;4.25;1.63;;;;;;;;;;5073054;28;20035;-75
2022/07/29 14:04:48;;;;;;;4.15;1.55;;;;;;;;;;5079650;28;20957;-75
2022/07/29 14:07:14;;;;;;;2.65;1.30;;;;;;;;;;5075735;28;20036;-75
2022/07/29 14:09:40;;;;;;;2.22;1.15;;;;;;;;;;5073331;28;20040;-74
2022/07/29 14:12:07;;;;;;;5.97;1.20;;;;;;;;;;5078043;28;20060;-74
2022/07/29 14:14:33;;;;;;;3.13;1.30;;;;;;;;;;5074245;28;20075;-75
2022/07/29 14:16:59;;;;;;;4.70;1.75;;;;;;;;;;5084060;28;20028;-74
2022/07/29 14:19:25;;;;;;;6.72;1.63;;;;;;;;;;5070829;28;20040;-75
2022/07/29 14:21:51;;;;;;;2.67;1.23;;;;;;;;;;5084864;28;20028;-75
2022/07/29 14:24:17;;;;;;;2.97;1.10;;;;;;;;;;5076334;28;20037;-75
2022/07/29 14:26:43;;;;;;;4.10;1.30;;;;;;;;;;5077053;28;20484;-75
2022/07/29 14:29:09;;;;;;;5.60;1.45;;;;;;;;;;5072357;28;20040;-75
2022/07/29 14:31:35;;;;;;;3.53;1.70;;;;;;;;;;5077604;28;20074;-75
2022/07/29 14:34:01;;;;;;;3.90;1.75;;;;;;;;;;5078880;28;20032;-75
2022/07/29 14:36:27;;;;;;;4.07;1.27;;;;;;;;;;5076783;28;20032;-75
2022/07/29 14:38:53;;;;;;;2.88;0.90;;;;;;;;;;5082278;28;20113;-75
2022/07/29 14:41:21;;;;;;;4.35;1.27;;;;;;;;;;5074307;28;20107;-75
2022/07/29 14:43:47;;;;;;;2.70;1.00;;;;;;;;;;5074825;28;20710;-74
2022/07/29 14:46:13;;;;;;;2.63;1.50;;;;;;;;;;5083359;28;20032;-74
2022/07/29 14:48:39;;;;;;;3.67;1.88;;;;;;;;;;5085754;28;20024;-74
2022/07/29 14:51:05;;;;;;;5.50;2.00;;;;;;;;;;5081477;28;20033;-74
2022/07/29 14:53:32;;;;;;;4.57;1.40;;;;;;;;;;5079671;28;20033;-74
2022/07/29 14:55:58;;;;;;;3.30;1.00;;;;;;;;;;5078740;28;20074;-74